sensor_id;sensor_type;location;lat;lon;timestamp;pressure;altitude;pressure_sealevel;temperature;humidity
45285;BME280;31026;43.780;25.948;2023-04-01T00:00:56;99950.16;;;17.46;65.31
45285;BME280;31026;43.780;25.948;2023-04-01T00:03:38;99942.03;;;17.38;65.80
45285;BME280;31026;43.780;25.948;2023-04-01T00:09:02;99930.50;;;17.38;65.42
45285;BME280;31026;43.780;25.948;2023-04-01T00:20:11;99908.31;;;17.27;65.56
45285;BME280;31026;43.780;25.948;2023-04-01T00:25:35;99910.84;;;17.29;65.48
45285;BME280;31026;43.780;25.948;2023-04-01T00:31:03;99899.47;;;17.27;65.86
45285;BME280;31026;43.780;25.948;2023-04-01T00:36:29;99901.84;;;17.30;65.44
45285;BME280;31026;43.780;25.948;2023-04-01T00:39:07;99900.56;;;17.34;65.41
45285;BME280;31026;43.780;25.948;2023-04-01T00:41:47;99884.41;;;17.26;65.73
45285;BME280;31026;43.780;25.948;2023-04-01T00:47:11;99880.94;;;17.16;65.80
45285;BME280;31026;43.780;25.948;2023-04-01T01:03:21;99861.81;;;17.10;66.24
45285;BME280;31026;43.780;25.948;2023-04-01T01:11:32;99848.88;;;17.16;65.56
45285;BME280;31026;43.780;25.948;2023-04-01T01:17:00;99851.13;;;17.10;65.80
45285;BME280;31026;43.780;25.948;2023-04-01T01:30:41;99819.97;;;17.01;65.72
45285;BME280;31026;43.780;25.948;2023-04-01T01:36:09;99827.28;;;16.99;66.23
45285;BME280;31026;43.780;25.948;2023-04-01T01:38:51;99823.75;;;16.99;65.90
45285;BME280;31026;43.780;25.948;2023-04-01T01:47:02;99813.69;;;18.21;63.13
45285;BME280;31026;43.780;25.948;2023-04-01T01:49:41;99803.50;;;19.21;60.58
45285;BME280;31026;43.780;25.948;2023-04-01T01:52:21;99798.91;;;19.91;58.27
45285;BME280;31026;43.780;25.948;2023-04-01T02:00:25;99772.31;;;19.63;59.29
45285;BME280;31026;43.780;25.948;2023-04-01T02:03:04;99774.31;;;19.61;59.78
45285;BME280;31026;43.780;25.948;2023-04-01T02:05:34;99786.41;;;19.65;59.94
45285;BME280;31026;43.780;25.948;2023-04-01T02:11:03;99763.97;;;19.66;60.08
45285;BME280;31026;43.780;25.948;2023-04-01T02:13:43;99768.88;;;19.79;59.47
45285;BME280;31026;43.780;25.948;2023-04-01T02:19:12;99766.38;;;19.94;59.18
45285;BME280;31026;43.780;25.948;2023-04-01T02:27:24;99742.41;;;20.00;59.18
45285;BME280;31026;43.780;25.948;2023-04-01T02:30:05;99740.91;;;19.98;59.47
45285;BME280;31026;43.780;25.948;2023-04-01T02:35:29;99736.19;;;20.00;59.09
45285;BME280;31026;43.780;25.948;2023-04-01T02:38:04;99747.09;;;20.06;58.98
45285;BME280;31026;43.780;25.948;2023-04-01T02:43:39;99724.94;;;20.13;59.00
45285;BME280;31026;43.780;25.948;2023-04-01T02:49:03;99709.34;;;20.24;58.76
45285;BME280;31026;43.780;25.948;2023-04-01T02:54:26;99724.78;;;20.31;58.79
45285;BME280;31026;43.780;25.948;2023-04-01T03:02:16;99707.19;;;20.12;59.01
45285;BME280;31026;43.780;25.948;2023-04-01T03:07:40;99691.25;;;20.10;58.96
45285;BME280;31026;43.780;25.948;2023-04-01T03:13:06;99708.34;;;20.25;58.79
45285;BME280;31026;43.780;25.948;2023-04-01T03:15:42;99698.97;;;20.21;58.85
45285;BME280;31026;43.780;25.948;2023-04-01T03:18:12;99709.34;;;20.33;58.68
45285;BME280;31026;43.780;25.948;2023-04-01T03:20:51;99699.78;;;20.30;58.52
45285;BME280;31026;43.780;25.948;2023-04-01T03:26:17;99712.84;;;20.41;58.68
45285;BME280;31026;43.780;25.948;2023-04-01T03:28:48;99696.38;;;20.44;58.97
45285;BME280;31026;43.780;25.948;2023-04-01T03:34:15;99700.44;;;20.40;58.75
45285;BME280;31026;43.780;25.948;2023-04-01T03:39:35;99690.56;;;20.24;59.59
45285;BME280;31026;43.780;25.948;2023-04-01T03:44:59;99707.31;;;20.26;60.09
45285;BME280;31026;43.780;25.948;2023-04-01T03:47:35;99693.25;;;20.16;60.18
45285;BME280;31026;43.780;25.948;2023-04-01T03:53:02;99693.94;;;20.10;61.13
45285;BME280;31026;43.780;25.948;2023-04-01T03:58:27;99689.56;;;20.01;60.94
45285;BME280;31026;43.780;25.948;2023-04-01T04:01:03;99694.25;;;19.99;60.97
45285;BME280;31026;43.780;25.948;2023-04-01T04:03:37;99697.22;;;19.63;62.13
45285;BME280;31026;43.780;25.948;2023-04-01T04:06:14;99687.13;;;19.32;63.22
45285;BME280;31026;43.780;25.948;2023-04-01T04:08:47;99682.81;;;19.56;61.09
45285;BME280;31026;43.780;25.948;2023-04-01T04:11:17;99684.56;;;19.90;60.16
45285;BME280;31026;43.780;25.948;2023-04-01T04:16:31;99672.22;;;20.44;58.62
45285;BME280;31026;43.780;25.948;2023-04-01T04:19:07;99683.13;;;20.43;58.63
45285;BME280;31026;43.780;25.948;2023-04-01T04:21:35;99675.28;;;20.41;58.75
45285;BME280;31026;43.780;25.948;2023-04-01T04:24:07;99658.00;;;20.36;58.57
45285;BME280;31026;43.780;25.948;2023-04-01T04:26:35;99662.34;;;20.37;58.54
45285;BME280;31026;43.780;25.948;2023-04-01T04:29:14;99654.63;;;20.42;58.72
45285;BME280;31026;43.780;25.948;2023-04-01T04:31:42;99662.50;;;20.43;58.77
45285;BME280;31026;43.780;25.948;2023-04-01T04:34:20;99675.41;;;20.48;58.70
45285;BME280;31026;43.780;25.948;2023-04-01T04:36:54;99691.66;;;20.55;58.30
45285;BME280;31026;43.780;25.948;2023-04-01T04:44:58;99679.25;;;20.54;58.12
45285;BME280;31026;43.780;25.948;2023-04-01T04:47:40;99684.81;;;20.44;59.20
45285;BME280;31026;43.780;25.948;2023-04-01T04:50:10;99683.78;;;20.45;59.16
45285;BME280;31026;43.780;25.948;2023-04-01T04:52:38;99686.97;;;20.49;59.12
45285;BME280;31026;43.780;25.948;2023-04-01T04:55:08;99678.13;;;20.40;59.08
45285;BME280;31026;43.780;25.948;2023-04-01T04:57:44;99671.41;;;20.36;59.59
45285;BME280;31026;43.780;25.948;2023-04-01T05:00:16;99675.41;;;20.48;59.56
45285;BME280;31026;43.780;25.948;2023-04-01T05:02:54;99678.72;;;20.58;59.57
45285;BME280;31026;43.780;25.948;2023-04-01T05:05:36;99672.22;;;21.00;58.71
45285;BME280;31026;43.780;25.948;2023-04-01T05:08:07;99662.63;;;21.06;58.36
45285;BME280;31026;43.780;25.948;2023-04-01T05:10:37;99682.94;;;21.09;58.54
45285;BME280;31026;43.780;25.948;2023-04-01T05:13:09;99679.75;;;21.13;58.64
45285;BME280;31026;43.780;25.948;2023-04-01T05:18:23;99660.31;;;21.03;59.43
45285;BME280;31026;43.780;25.948;2023-04-01T05:20:52;99676.28;;;20.96;59.19
45285;BME280;31026;43.780;25.948;2023-04-01T05:23:22;99672.06;;;21.02;59.13
45285;BME280;31026;43.780;25.948;2023-04-01T05:25:52;99681.59;;;21.04;59.07
45285;BME280;31026;43.780;25.948;2023-04-01T05:31:08;99678.63;;;20.99;59.69
45285;BME280;31026;43.780;25.948;2023-04-01T05:33:45;99680.91;;;21.11;59.06
45285;BME280;31026;43.780;25.948;2023-04-01T05:36:20;99668.97;;;21.13;59.08
45285;BME280;31026;43.780;25.948;2023-04-01T05:38:50;99672.94;;;21.25;59.35
45285;BME280;31026;43.780;25.948;2023-04-01T05:41:18;99669.19;;;21.03;60.01
45285;BME280;31026;43.780;25.948;2023-04-01T05:43:49;99651.13;;;20.89;60.36
45285;BME280;31026;43.780;25.948;2023-04-01T05:46:17;99654.84;;;20.80;60.98
45285;BME280;31026;43.780;25.948;2023-04-01T05:48:53;99663.13;;;20.70;60.86
45285;BME280;31026;43.780;25.948;2023-04-01T05:51:29;99659.59;;;20.70;60.96
45285;BME280;31026;43.780;25.948;2023-04-01T05:56:53;99639.06;;;20.77;60.52
45285;BME280;31026;43.780;25.948;2023-04-01T05:59:31;99637.25;;;20.77;60.67
45285;BME280;31026;43.780;25.948;2023-04-01T06:07:37;99613.41;;;20.74;60.78
45285;BME280;31026;43.780;25.948;2023-04-01T06:13:02;99629.47;;;20.82;60.47
45285;BME280;31026;43.780;25.948;2023-04-01T06:18:39;99635.88;;;20.81;60.68
45285;BME280;31026;43.780;25.948;2023-04-01T06:24:16;99629.81;;;21.19;59.79
45285;BME280;31026;43.780;25.948;2023-04-01T06:27:00;99613.13;;;21.23;59.40
45285;BME280;31026;43.780;25.948;2023-04-01T06:32:22;99638.25;;;21.08;59.52
45285;BME280;31026;43.780;25.948;2023-04-01T06:38:00;99644.06;;;21.19;59.04
45285;BME280;31026;43.780;25.948;2023-04-01T06:46:28;99617.63;;;21.31;58.98
45285;BME280;31026;43.780;25.948;2023-04-01T06:51:57;99625.31;;;21.34;58.76
45285;BME280;31026;43.780;25.948;2023-04-01T06:57:24;99626.47;;;21.40;58.75
45285;BME280;31026;43.780;25.948;2023-04-01T07:02:55;99622.75;;;21.18;58.95
45285;BME280;31026;43.780;25.948;2023-04-01T07:05:41;99617.03;;;21.21;59.39
45285;BME280;31026;43.780;25.948;2023-04-01T07:11:06;99616.16;;;21.52;58.20
45285;BME280;31026;43.780;25.948;2023-04-01T07:13:36;99617.69;;;21.69;57.97
45285;BME280;31026;43.780;25.948;2023-04-01T07:19:06;99616.66;;;21.70;58.06
45285;BME280;31026;43.780;25.948;2023-04-01T07:27:27;99641.88;;;21.23;59.11
45285;BME280;31026;43.780;25.948;2023-04-01T07:29:57;99639.47;;;21.28;59.27
45285;BME280;31026;43.780;25.948;2023-04-01T07:35:24;99635.56;;;21.39;59.24
45285;BME280;31026;43.780;25.948;2023-04-01T07:49:13;99601.94;;;21.43;58.75
45285;BME280;31026;43.780;25.948;2023-04-01T07:51:56;99601.13;;;21.34;59.30
45285;BME280;31026;43.780;25.948;2023-04-01T07:54:37;99602.88;;;21.27;59.79
45285;BME280;31026;43.780;25.948;2023-04-01T07:57:16;99616.00;;;21.22;59.80
45285;BME280;31026;43.780;25.948;2023-04-01T08:02:45;99640.06;;;21.38;59.26
45285;BME280;31026;43.780;25.948;2023-04-01T08:11:25;99585.28;;;21.39;59.04
45285;BME280;31026;43.780;25.948;2023-04-01T08:14:02;99592.16;;;21.42;59.61
45285;BME280;31026;43.780;25.948;2023-04-01T08:16:42;99616.22;;;21.43;59.72
45285;BME280;31026;43.780;25.948;2023-04-01T08:19:15;99588.28;;;21.44;59.68
45285;BME280;31026;43.780;25.948;2023-04-01T08:24:42;99594.28;;;21.55;59.36
45285;BME280;31026;43.780;25.948;2023-04-01T08:30:18;99575.13;;;20.72;61.60
45285;BME280;31026;43.780;25.948;2023-04-01T08:32:49;99594.25;;;20.30;63.23
45285;BME280;31026;43.780;25.948;2023-04-01T08:35:37;99598.63;;;20.70;62.01
45285;BME280;31026;43.780;25.948;2023-04-01T09:06:42;99571.78;;;21.01;61.23
45285;BME280;31026;43.780;25.948;2023-04-01T09:12:16;99570.75;;;21.02;61.08
45285;BME280;31026;43.780;25.948;2023-04-01T09:14:50;99573.66;;;20.93;61.39
45285;BME280;31026;43.780;25.948;2023-04-01T09:23:15;99574.69;;;20.92;60.92
45285;BME280;31026;43.780;25.948;2023-04-01T09:25:53;99551.16;;;20.94;60.89
45285;BME280;31026;43.780;25.948;2023-04-01T09:28:33;99569.59;;;20.97;61.18
45285;BME280;31026;43.780;25.948;2023-04-01T09:39:46;99556.03;;;20.90;61.02
45285;BME280;31026;43.780;25.948;2023-04-01T09:42:32;99553.69;;;20.95;60.88
45285;BME280;31026;43.780;25.948;2023-04-01T09:45:21;99525.84;;;20.88;61.21
45285;BME280;31026;43.780;25.948;2023-04-01T09:48:02;99524.63;;;20.91;60.78
45285;BME280;31026;43.780;25.948;2023-04-01T09:50:39;99536.69;;;20.95;60.81
45285;BME280;31026;43.780;25.948;2023-04-01T09:53:24;99522.47;;;20.86;61.15
45285;BME280;31026;43.780;25.948;2023-04-01T10:13:13;99538.34;;;20.73;61.66
45285;BME280;31026;43.780;25.948;2023-04-01T10:36:09;99519.03;;;20.77;61.51
45285;BME280;31026;43.780;25.948;2023-04-01T10:50:14;99521.88;;;20.76;61.39
45285;BME280;31026;43.780;25.948;2023-04-01T10:55:55;99489.75;;;20.82;60.91
45285;BME280;31026;43.780;25.948;2023-04-01T11:24:40;99461.69;;;21.08;60.82
45285;BME280;31026;43.780;25.948;2023-04-01T11:32:53;99461.91;;;21.21;60.99
45285;BME280;31026;43.780;25.948;2023-04-01T11:38:14;99449.56;;;21.12;61.07
45285;BME280;31026;43.780;25.948;2023-04-01T11:40:51;99469.44;;;21.26;60.46
45285;BME280;31026;43.780;25.948;2023-04-01T11:43:24;99452.47;;;21.25;60.42
45285;BME280;31026;43.780;25.948;2023-04-01T11:45:56;99448.34;;;21.15;60.98
45285;BME280;31026;43.780;25.948;2023-04-01T11:48:37;99446.53;;;21.30;60.15
45285;BME280;31026;43.780;25.948;2023-04-01T11:51:11;99434.38;;;21.34;60.23
45285;BME280;31026;43.780;25.948;2023-04-01T11:53:46;99434.78;;;21.31;60.57
45285;BME280;31026;43.780;25.948;2023-04-01T11:56:23;99436.81;;;21.29;60.57
45285;BME280;31026;43.780;25.948;2023-04-01T11:59:02;99434.19;;;21.21;60.75
45285;BME280;31026;43.780;25.948;2023-04-01T12:01:46;99432.72;;;21.33;60.28
45285;BME280;31026;43.780;25.948;2023-04-01T12:04:22;99440.50;;;21.28;60.19
45285;BME280;31026;43.780;25.948;2023-04-01T12:06:57;99430.47;;;21.22;60.53
45285;BME280;31026;43.780;25.948;2023-04-01T12:09:31;99427.63;;;21.23;60.35
45285;BME280;31026;43.780;25.948;2023-04-01T12:12:10;99440.03;;;21.24;60.29
45285;BME280;31026;43.780;25.948;2023-04-01T12:14:39;99426.91;;;21.06;60.63
45285;BME280;31026;43.780;25.948;2023-04-01T12:17:13;99404.09;;;20.64;61.82
45285;BME280;31026;43.780;25.948;2023-04-01T12:19:47;99407.69;;;20.25;63.04
45285;BME280;31026;43.780;25.948;2023-04-01T12:22:23;99411.16;;;20.03;63.92
45285;BME280;31026;43.780;25.948;2023-04-01T12:24:58;99390.88;;;20.32;63.36
45285;BME280;31026;43.780;25.948;2023-04-01T12:27:35;99389.94;;;20.71;61.84
45285;BME280;31026;43.780;25.948;2023-04-01T12:30:14;99402.47;;;20.78;61.35
45285;BME280;31026;43.780;25.948;2023-04-01T12:32:52;99410.59;;;20.39;62.71
45285;BME280;31026;43.780;25.948;2023-04-01T12:35:24;99406.75;;;20.10;63.77
45285;BME280;31026;43.780;25.948;2023-04-01T12:40:40;99400.53;;;20.41;62.61
45285;BME280;31026;43.780;25.948;2023-04-01T12:46:01;99407.69;;;20.95;61.29
45285;BME280;31026;43.780;25.948;2023-04-01T12:51:41;99406.94;;;21.24;60.14
45285;BME280;31026;43.780;25.948;2023-04-01T12:54:18;99392.50;;;21.25;59.94
45285;BME280;31026;43.780;25.948;2023-04-01T12:56:54;99401.94;;;21.21;60.37
45285;BME280;31026;43.780;25.948;2023-04-01T12:59:37;99406.75;;;21.25;60.49
45285;BME280;31026;43.780;25.948;2023-04-01T13:02:14;99406.28;;;21.22;60.05
45285;BME280;31026;43.780;25.948;2023-04-01T13:05:10;99414.09;;;21.32;59.89
45285;BME280;31026;43.780;25.948;2023-04-01T13:07:56;99422.25;;;21.23;59.94
45285;BME280;31026;43.780;25.948;2023-04-01T13:10:30;99413.44;;;21.30;59.77
45285;BME280;31026;43.780;25.948;2023-04-01T13:13:07;99417.59;;;21.17;60.45
45285;BME280;31026;43.780;25.948;2023-04-01T13:15:40;99411.31;;;21.25;60.35
45285;BME280;31026;43.780;25.948;2023-04-01T13:18:15;99412.56;;;21.14;60.36
45285;BME280;31026;43.780;25.948;2023-04-01T13:20:49;99423.06;;;21.24;60.47
45285;BME280;31026;43.780;25.948;2023-04-01T13:23:30;99414.44;;;21.29;59.67
45285;BME280;31026;43.780;25.948;2023-04-01T13:26:03;99414.00;;;21.25;59.95
45285;BME280;31026;43.780;25.948;2023-04-01T13:28:35;99411.09;;;21.12;60.68
45285;BME280;31026;43.780;25.948;2023-04-01T13:31:07;99420.88;;;21.04;61.16
45285;BME280;31026;43.780;25.948;2023-04-01T13:33:42;99419.50;;;21.09;60.74
45285;BME280;31026;43.780;25.948;2023-04-01T13:36:19;99412.47;;;21.08;61.38
45285;BME280;31026;43.780;25.948;2023-04-01T13:39:02;99406.53;;;20.97;61.19
45285;BME280;31026;43.780;25.948;2023-04-01T13:41:40;99401.34;;;21.11;61.36
45285;BME280;31026;43.780;25.948;2023-04-01T13:44:13;99416.75;;;21.17;61.72
45285;BME280;31026;43.780;25.948;2023-04-01T13:46:51;99390.16;;;21.22;61.54
45285;BME280;31026;43.780;25.948;2023-04-01T13:52:14;99394.16;;;21.26;61.71
45285;BME280;31026;43.780;25.948;2023-04-01T13:57:40;99386.00;;;21.19;61.69
45285;BME280;31026;43.780;25.948;2023-04-01T14:03:04;99397.28;;;21.15;62.19
45285;BME280;31026;43.780;25.948;2023-04-01T14:08:33;99387.47;;;21.22;62.32
45285;BME280;31026;43.780;25.948;2023-04-01T14:11:07;99379.41;;;21.07;62.60
45285;BME280;31026;43.780;25.948;2023-04-01T14:13:41;99384.16;;;20.97;62.84
45285;BME280;31026;43.780;25.948;2023-04-01T14:16:14;99383.63;;;21.01;62.69
45285;BME280;31026;43.780;25.948;2023-04-01T14:18:53;99391.72;;;21.01;63.21
45285;BME280;31026;43.780;25.948;2023-04-01T14:21:29;99387.47;;;21.07;63.29
45285;BME280;31026;43.780;25.948;2023-04-01T14:26:57;99372.34;;;21.06;63.42
45285;BME280;31026;43.780;25.948;2023-04-01T14:29:30;99375.56;;;21.01;63.55
45285;BME280;31026;43.780;25.948;2023-04-01T14:32:09;99356.59;;;21.03;63.27
45285;BME280;31026;43.780;25.948;2023-04-01T14:34:43;99349.09;;;21.13;63.50
45285;BME280;31026;43.780;25.948;2023-04-01T14:40:19;99368.25;;;21.10;63.17
45285;BME280;31026;43.780;25.948;2023-04-01T14:42:55;99336.84;;;21.11;63.58
45285;BME280;31026;43.780;25.948;2023-04-01T14:48:14;99345.00;;;21.17;63.32
45285;BME280;31026;43.780;25.948;2023-04-01T14:50:45;99335.72;;;21.20;63.05
45285;BME280;31026;43.780;25.948;2023-04-01T14:53:23;99347.03;;;21.30;63.02
45285;BME280;31026;43.780;25.948;2023-04-01T14:55:54;99337.22;;;21.22;62.69
45285;BME280;31026;43.780;25.948;2023-04-01T14:58:40;99327.38;;;21.15;63.13
45285;BME280;31026;43.780;25.948;2023-04-01T15:01:12;99329.44;;;21.28;62.98
45285;BME280;31026;43.780;25.948;2023-04-01T15:03:47;99335.09;;;21.18;63.22
45285;BME280;31026;43.780;25.948;2023-04-01T15:09:10;99327.09;;;21.24;63.65
45285;BME280;31026;43.780;25.948;2023-04-01T15:11:48;99329.25;;;21.29;63.42
45285;BME280;31026;43.780;25.948;2023-04-01T15:14:30;99333.72;;;21.37;63.32
45285;BME280;31026;43.780;25.948;2023-04-01T15:17:05;99349.56;;;21.32;63.55
45285;BME280;31026;43.780;25.948;2023-04-01T15:19:50;99349.22;;;21.50;62.87
45285;BME280;31026;43.780;25.948;2023-04-01T15:22:33;99355.53;;;21.57;63.15
45285;BME280;31026;43.780;25.948;2023-04-01T15:25:10;99354.88;;;21.55;63.56
45285;BME280;31026;43.780;25.948;2023-04-01T15:27:41;99366.34;;;21.49;63.35
45285;BME280;31026;43.780;25.948;2023-04-01T15:30:18;99368.50;;;21.53;63.51
45285;BME280;31026;43.780;25.948;2023-04-01T15:32:55;99361.56;;;21.59;63.35
45285;BME280;31026;43.780;25.948;2023-04-01T15:35:30;99389.09;;;21.61;62.86
45285;BME280;31026;43.780;25.948;2023-04-01T15:38:05;99376.41;;;21.02;64.76
45285;BME280;31026;43.780;25.948;2023-04-01T15:40:37;99385.16;;;20.58;66.18
45285;BME280;31026;43.780;25.948;2023-04-01T15:43:11;99358.66;;;20.32;65.59
45285;BME280;31026;43.780;25.948;2023-04-01T15:45:51;99352.31;;;20.24;66.34
45285;BME280;31026;43.780;25.948;2023-04-01T15:48:27;99356.50;;;20.50;65.52
45285;BME280;31026;43.780;25.948;2023-04-01T15:51:02;99366.16;;;20.82;64.96
45285;BME280;31026;43.780;25.948;2023-04-01T15:53:42;99382.09;;;21.07;64.08
45285;BME280;31026;43.780;25.948;2023-04-01T15:56:21;99391.19;;;21.21;63.72
45285;BME280;31026;43.780;25.948;2023-04-01T15:58:58;99402.38;;;21.24;63.40
45285;BME280;31026;43.780;25.948;2023-04-01T16:01:35;99411.00;;;21.20;63.59
45285;BME280;31026;43.780;25.948;2023-04-01T16:04:12;99408.03;;;21.15;63.50
45285;BME280;31026;43.780;25.948;2023-04-01T16:09:38;99419.13;;;21.35;63.28
45285;BME280;31026;43.780;25.948;2023-04-01T16:12:14;99428.34;;;21.32;63.19
45285;BME280;31026;43.780;25.948;2023-04-01T16:14:45;99444.97;;;21.21;63.29
45285;BME280;31026;43.780;25.948;2023-04-01T16:17:24;99437.91;;;21.20;63.32
45285;BME280;31026;43.780;25.948;2023-04-01T16:19:56;99441.72;;;21.25;63.26
45285;BME280;31026;43.780;25.948;2023-04-01T16:22:29;99438.06;;;21.18;63.40
45285;BME280;31026;43.780;25.948;2023-04-01T16:25:07;99454.97;;;21.27;63.46
45285;BME280;31026;43.780;25.948;2023-04-01T16:27:44;99462.81;;;21.14;63.63
45285;BME280;31026;43.780;25.948;2023-04-01T16:30:26;99456.72;;;21.20;63.87
45285;BME280;31026;43.780;25.948;2023-04-01T16:33:03;99475.75;;;21.33;63.33
45285;BME280;31026;43.780;25.948;2023-04-01T16:35:38;99463.22;;;21.40;63.47
45285;BME280;31026;43.780;25.948;2023-04-01T16:38:11;99443.34;;;21.50;63.24
45285;BME280;31026;43.780;25.948;2023-04-01T16:40:42;99440.97;;;21.32;63.89
45285;BME280;31026;43.780;25.948;2023-04-01T16:43:12;99438.19;;;21.25;63.62
45285;BME280;31026;43.780;25.948;2023-04-01T16:45:42;99414.25;;;21.30;63.55
45285;BME280;31026;43.780;25.948;2023-04-01T16:48:18;99409.53;;;21.32;63.13
45285;BME280;31026;43.780;25.948;2023-04-01T16:50:52;99413.53;;;21.36;62.64
45285;BME280;31026;43.780;25.948;2023-04-01T16:53:25;99392.22;;;21.35;62.55
45285;BME280;31026;43.780;25.948;2023-04-01T16:56:02;99373.56;;;21.33;63.14
45285;BME280;31026;43.780;25.948;2023-04-01T16:58:34;99397.66;;;21.26;63.39
45285;BME280;31026;43.780;25.948;2023-04-01T17:01:04;99396.19;;;21.24;63.52
45285;BME280;31026;43.780;25.948;2023-04-01T17:03:36;99418.06;;;21.21;63.23
45285;BME280;31026;43.780;25.948;2023-04-01T17:06:11;99419.16;;;21.26;63.29
45285;BME280;31026;43.780;25.948;2023-04-01T17:08:49;99412.22;;;21.32;63.14
45285;BME280;31026;43.780;25.948;2023-04-01T17:11:23;99415.09;;;21.16;63.33
45285;BME280;31026;43.780;25.948;2023-04-01T17:13:57;99411.19;;;20.80;63.89
45285;BME280;31026;43.780;25.948;2023-04-01T17:16:43;99422.97;;;20.48;65.32
45285;BME280;31026;43.780;25.948;2023-04-01T17:19:22;99414.66;;;20.35;65.52
45285;BME280;31026;43.780;25.948;2023-04-01T17:21:57;99408.06;;;20.45;65.82
45285;BME280;31026;43.780;25.948;2023-04-01T17:24:29;99425.16;;;20.76;64.98
45285;BME280;31026;43.780;25.948;2023-04-01T17:27:01;99415.97;;;20.93;64.32
45285;BME280;31026;43.780;25.948;2023-04-01T17:29:46;99429.94;;;20.65;64.46
45285;BME280;31026;43.780;25.948;2023-04-01T17:32:25;99436.56;;;20.23;64.36
45285;BME280;31026;43.780;25.948;2023-04-01T17:35:00;99438.34;;;20.00;65.64
45285;BME280;31026;43.780;25.948;2023-04-01T17:37:37;99440.91;;;20.24;66.13
45285;BME280;31026;43.780;25.948;2023-04-01T17:40:20;99442.91;;;20.54;65.31
45285;BME280;31026;43.780;25.948;2023-04-01T17:42:55;99434.13;;;20.68;64.70
45285;BME280;31026;43.780;25.948;2023-04-01T17:45:30;99435.78;;;20.92;64.20
45285;BME280;31026;43.780;25.948;2023-04-01T17:48:03;99435.63;;;21.09;63.25
45285;BME280;31026;43.780;25.948;2023-04-01T17:50:42;99427.78;;;21.07;63.50
45285;BME280;31026;43.780;25.948;2023-04-01T17:53:17;99436.59;;;21.16;63.44
45285;BME280;31026;43.780;25.948;2023-04-01T17:55:54;99445.38;;;21.10;63.42
45285;BME280;31026;43.780;25.948;2023-04-01T17:58:28;99441.75;;;21.02;63.76
45285;BME280;31026;43.780;25.948;2023-04-01T18:01:01;99438.97;;;21.11;63.82
45285;BME280;31026;43.780;25.948;2023-04-01T18:03:44;99442.31;;;21.13;63.71
45285;BME280;31026;43.780;25.948;2023-04-01T18:06:23;99454.94;;;21.12;64.05
45285;BME280;31026;43.780;25.948;2023-04-01T18:08:56;99436.94;;;21.13;62.65
45285;BME280;31026;43.780;25.948;2023-04-01T18:11:31;99444.72;;;21.08;63.14
45285;BME280;31026;43.780;25.948;2023-04-01T18:14:13;99444.31;;;20.96;63.28
45285;BME280;31026;43.780;25.948;2023-04-01T18:16:59;99451.19;;;20.98;62.95
45285;BME280;31026;43.780;25.948;2023-04-01T18:19:35;99427.56;;;21.09;62.52
45285;BME280;31026;43.780;25.948;2023-04-01T18:22:15;99426.31;;;21.19;62.71
45285;BME280;31026;43.780;25.948;2023-04-01T18:24:48;99443.56;;;21.25;62.46
45285;BME280;31026;43.780;25.948;2023-04-01T18:27:18;99444.22;;;21.27;62.86
45285;BME280;31026;43.780;25.948;2023-04-01T18:29:50;99449.94;;;21.24;62.60
45285;BME280;31026;43.780;25.948;2023-04-01T18:32:24;99468.75;;;20.86;63.76
45285;BME280;31026;43.780;25.948;2023-04-01T18:34:57;99472.97;;;20.49;65.26
45285;BME280;31026;43.780;25.948;2023-04-01T18:37:31;99481.81;;;20.26;65.42
45285;BME280;31026;43.780;25.948;2023-04-01T18:40:04;99487.28;;;20.10;65.71
45285;BME280;31026;43.780;25.948;2023-04-01T18:42:41;99500.06;;;20.00;66.00
45285;BME280;31026;43.780;25.948;2023-04-01T18:45:14;99496.34;;;20.01;65.90
45285;BME280;31026;43.780;25.948;2023-04-01T18:47:47;99490.19;;;19.92;66.38
45285;BME280;31026;43.780;25.948;2023-04-01T18:50:19;99512.84;;;19.81;66.21
45285;BME280;31026;43.780;25.948;2023-04-01T18:52:53;99518.72;;;19.68;66.66
45285;BME280;31026;43.780;25.948;2023-04-01T18:55:29;99519.25;;;19.72;66.88
45285;BME280;31026;43.780;25.948;2023-04-01T18:58:06;99523.44;;;19.75;66.30
45285;BME280;31026;43.780;25.948;2023-04-01T19:00:39;99527.75;;;19.67;66.93
45285;BME280;31026;43.780;25.948;2023-04-01T19:03:11;99524.91;;;19.69;66.54
45285;BME280;31026;43.780;25.948;2023-04-01T19:05:44;99538.66;;;19.66;65.99
45285;BME280;31026;43.780;25.948;2023-04-01T19:08:18;99533.47;;;19.56;68.82
45285;BME280;31026;43.780;25.948;2023-04-01T19:10:48;99533.81;;;19.53;68.46
45285;BME280;31026;43.780;25.948;2023-04-01T19:13:19;99520.06;;;19.56;68.92
45285;BME280;31026;43.780;25.948;2023-04-01T19:15:52;99530.63;;;19.74;68.83
45285;BME280;31026;43.780;25.948;2023-04-01T19:18:32;99519.56;;;19.77;68.78
45285;BME280;31026;43.780;25.948;2023-04-01T19:21:07;99522.75;;;19.81;68.15
45285;BME280;31026;43.780;25.948;2023-04-01T19:26:25;99521.06;;;19.63;68.87
45285;BME280;31026;43.780;25.948;2023-04-01T19:28:57;99537.66;;;19.51;69.54
45285;BME280;31026;43.780;25.948;2023-04-01T19:31:31;99539.34;;;19.43;69.00
45285;BME280;31026;43.780;25.948;2023-04-01T19:34:05;99545.22;;;19.39;68.81
45285;BME280;31026;43.780;25.948;2023-04-01T19:36:38;99551.91;;;19.43;69.07
45285;BME280;31026;43.780;25.948;2023-04-01T19:39:17;99546.03;;;19.39;69.31
45285;BME280;31026;43.780;25.948;2023-04-01T19:41:56;99540.38;;;19.34;68.98
45285;BME280;31026;43.780;25.948;2023-04-01T19:44:31;99541.72;;;19.38;68.85
45285;BME280;31026;43.780;25.948;2023-04-01T19:47:04;99541.03;;;19.36;68.12
45285;BME280;31026;43.780;25.948;2023-04-01T19:49:37;99551.56;;;19.30;68.60
45285;BME280;31026;43.780;25.948;2023-04-01T19:52:08;99542.03;;;19.35;68.38
45285;BME280;31026;43.780;25.948;2023-04-01T19:54:41;99551.59;;;19.38;68.03